Time;durP1;ratioP1;P1;durP2;ratioP2;P2;SDS_P1;SDS_P2;PMS_P1;PMS_P2;Temp;Humidity;BMP_temperature;BMP_pressure;BME280_temperature;BME280_humidity;BME280_pressure;Samples;Min_cycle;Max_cycle;Signal;HPM_P1;HPM_P2
2022/07/07 00:01:36;;;;;;;1.13;0.80;;;;;;;;;;4993801;28;20030;-69
2022/07/07 00:04:02;;;;;;;2.55;0.90;;;;;;;;;;4993601;28;20260;-69
2022/07/07 00:06:28;;;;;;;3.30;1.00;;;;;;;;;;4993708;28;20097;-69
2022/07/07 00:08:54;;;;;;;1.13;0.80;;;;;;;;;;4997067;28;20038;-69
2022/07/07 00:11:20;;;;;;;1.83;1.00;;;;;;;;;;4997486;28;20019;-70
2022/07/07 00:13:46;;;;;;;4.95;1.02;;;;;;;;;;4997684;28;20034;-69
2022/07/07 00:16:11;;;;;;;7.53;1.00;;;;;;;;;;4997689;28;20022;-69
2022/07/07 00:18:36;;;;;;;3.70;1.00;;;;;;;;;;4979811;28;20105;-69
2022/07/07 00:21:02;;;;;;;1.85;1.00;;;;;;;;;;4997235;28;20390;-70
2022/07/07 00:23:27;;;;;;;2.40;1.23;;;;;;;;;;4996900;28;20022;-69
2022/07/07 00:25:52;;;;;;;3.35;1.00;;;;;;;;;;4997941;28;20077;-70
2022/07/07 00:28:18;;;;;;;1.63;1.00;;;;;;;;;;4996783;28;20022;-70
2022/07/07 00:30:43;;;;;;;2.83;1.00;;;;;;;;;;4997116;28;20256;-70
2022/07/07 00:33:08;;;;;;;3.28;1.00;;;;;;;;;;4996724;28;20741;-70
2022/07/07 00:35:33;;;;;;;2.15;0.90;;;;;;;;;;4996878;28;20110;-70
2022/07/07 00:37:59;;;;;;;1.50;0.77;;;;;;;;;;4996562;28;20471;-69
2022/07/07 00:40:24;;;;;;;3.20;1.00;;;;;;;;;;4996706;28;20034;-70
2022/07/07 00:42:49;;;;;;;5.07;0.83;;;;;;;;;;4996610;28;20275;-69
2022/07/07 00:45:14;;;;;;;1.53;0.90;;;;;;;;;;4996844;28;20267;-70
2022/07/07 00:47:40;;;;;;;4.13;1.00;;;;;;;;;;4997001;28;20371;-70
2022/07/07 00:50:06;;;;;;;3.05;0.90;;;;;;;;;;4996413;28;20745;-70
2022/07/07 00:52:32;;;;;;;3.33;0.90;;;;;;;;;;4996743;28;20181;-69
2022/07/07 00:54:59;;;;;;;2.00;0.93;;;;;;;;;;4996319;28;20043;-70
2022/07/07 00:57:25;;;;;;;2.50;0.90;;;;;;;;;;4996387;28;20033;-70
2022/07/07 00:59:54;;;;;;;1.77;0.80;;;;;;;;;;4996460;28;20026;-70
2022/07/07 01:02:19;;;;;;;2.45;1.10;;;;;;;;;;4995970;28;20042;-70
2022/07/07 01:04:45;;;;;;;2.13;0.93;;;;;;;;;;4995972;28;20364;-70
2022/07/07 01:07:10;;;;;;;1.92;1.00;;;;;;;;;;4995923;28;20776;-69
2022/07/07 01:09:37;;;;;;;2.30;1.08;;;;;;;;;;4998146;28;20365;-77
2022/07/07 01:12:03;;;;;;;3.22;1.00;;;;;;;;;;4999540;28;20029;-78
2022/07/07 01:14:29;;;;;;;6.28;1.00;;;;;;;;;;4999214;28;20058;-76
2022/07/07 01:16:55;;;;;;;17.38;1.70;;;;;;;;;;5000169;28;20553;-78
2022/07/07 01:19:22;;;;;;;3.08;1.15;;;;;;;;;;4999569;28;20058;-78
2022/07/07 01:21:53;;;;;;;2.35;1.20;;;;;;;;;;5000547;28;20030;-78
2022/07/07 01:24:19;;;;;;;2.58;1.02;;;;;;;;;;5000771;28;20034;-78
2022/07/07 01:26:45;;;;;;;1.55;1.00;;;;;;;;;;5000036;28;20038;-78
2022/07/07 01:29:10;;;;;;;3.17;1.13;;;;;;;;;;4999555;28;20085;-79
2022/07/07 01:31:35;;;;;;;4.03;1.10;;;;;;;;;;4999011;28;20260;-77
2022/07/07 01:34:01;;;;;;;2.92;0.80;;;;;;;;;;5000850;28;20018;-78
2022/07/07 01:36:26;;;;;;;4.93;1.07;;;;;;;;;;5000495;28;20026;-76
2022/07/07 01:38:51;;;;;;;2.72;1.20;;;;;;;;;;5000462;28;20780;-77
2022/07/07 01:41:16;;;;;;;3.05;1.00;;;;;;;;;;5001361;28;20109;-77
2022/07/07 01:43:41;;;;;;;1.85;0.95;;;;;;;;;;5001007;28;20598;-77
2022/07/07 01:46:07;;;;;;;2.97;0.90;;;;;;;;;;4999365;28;20034;-77
2022/07/07 01:48:32;;;;;;;4.03;0.85;;;;;;;;;;4998341;28;20287;-78
2022/07/07 01:50:58;;;;;;;2.65;1.05;;;;;;;;;;5000474;28;20018;-78
2022/07/07 01:53:23;;;;;;;4.63;1.00;;;;;;;;;;4998744;28;20395;-77
2022/07/07 01:55:48;;;;;;;1.63;1.00;;;;;;;;;;4998979;28;20030;-77
2022/07/07 01:58:13;;;;;;;3.03;1.00;;;;;;;;;;4998097;28;20256;-77
2022/07/07 02:00:39;;;;;;;2.40;1.17;;;;;;;;;;4998282;28;20347;-77
2022/07/07 02:03:04;;;;;;;4.18;1.20;;;;;;;;;;4999744;28;20062;-78
2022/07/07 02:05:29;;;;;;;2.67;1.00;;;;;;;;;;5000418;28;20423;-78
2022/07/07 02:07:54;;;;;;;5.33;1.20;;;;;;;;;;4996447;28;20653;-77
2022/07/07 02:13:08;;;;;;;3.38;1.20;;;;;;;;;;4969144;28;20038;-78
2022/07/07 02:15:33;;;;;;;1.53;0.90;;;;;;;;;;4997474;28;20032;-77
2022/07/07 02:17:59;;;;;;;1.63;0.90;;;;;;;;;;4997124;28;20296;-78
2022/07/07 02:20:24;;;;;;;1.80;0.95;;;;;;;;;;4999361;28;20264;-78
2022/07/07 02:22:52;;;;;;;3.13;1.10;;;;;;;;;;4998046;28;20058;-77
2022/07/07 02:25:17;;;;;;;1.65;1.00;;;;;;;;;;4981365;28;20023;-78
2022/07/07 02:27:43;;;;;;;2.20;0.90;;;;;;;;;;4998800;28;20026;-78
2022/07/07 02:30:08;;;;;;;2.03;1.00;;;;;;;;;;4981305;28;20030;-78
2022/07/07 02:32:34;;;;;;;1.65;0.90;;;;;;;;;;4999286;28;20091;-78
2022/07/07 02:35:01;;;;;;;3.78;1.10;;;;;;;;;;4998878;28;20082;-78
2022/07/07 02:37:26;;;;;;;2.63;0.98;;;;;;;;;;4981756;28;20022;-76
2022/07/07 02:39:52;;;;;;;1.50;0.85;;;;;;;;;;4997054;28;20033;-77
2022/07/07 02:42:17;;;;;;;1.17;0.85;;;;;;;;;;4999264;28;20512;-78
2022/07/07 02:44:42;;;;;;;2.40;1.00;;;;;;;;;;4998686;28;20439;-78
2022/07/07 02:47:08;;;;;;;1.95;1.00;;;;;;;;;;4999101;28;20316;-78
2022/07/07 02:49:33;;;;;;;1.35;0.90;;;;;;;;;;4998866;28;20030;-78
2022/07/07 02:51:58;;;;;;;2.43;0.80;;;;;;;;;;4998830;28;20030;-78
2022/07/07 02:54:23;;;;;;;1.17;0.83;;;;;;;;;;4998495;28;20256;-77
2022/07/07 02:56:49;;;;;;;0.90;0.77;;;;;;;;;;4980591;28;20264;-77
2022/07/07 02:59:14;;;;;;;1.20;0.87;;;;;;;;;;4998111;28;20252;-78
2022/07/07 03:01:39;;;;;;;2.03;1.10;;;;;;;;;;4996966;28;20262;-78
2022/07/07 03:04:04;;;;;;;1.67;0.90;;;;;;;;;;4998517;28;20038;-78
2022/07/07 03:06:30;;;;;;;3.13;1.10;;;;;;;;;;4998408;28;20286;-77
2022/07/07 03:08:55;;;;;;;2.30;1.00;;;;;;;;;;4998391;28;20347;-77
2022/07/07 03:11:20;;;;;;;5.95;1.10;;;;;;;;;;4996654;28;20717;-76
2022/07/07 03:13:45;;;;;;;1.90;1.00;;;;;;;;;;4996096;28;20069;-78
2022/07/07 03:16:10;;;;;;;5.37;1.10;;;;;;;;;;4994870;28;20483;-76
2022/07/07 03:18:36;;;;;;;3.65;0.90;;;;;;;;;;4998707;28;20263;-77
2022/07/07 03:21:01;;;;;;;3.63;1.00;;;;;;;;;;4998168;28;20028;-78
2022/07/07 03:23:26;;;;;;;2.60;1.00;;;;;;;;;;4997745;28;20041;-78
2022/07/07 03:25:51;;;;;;;2.10;0.93;;;;;;;;;;4998187;28;20268;-78
2022/07/07 03:28:17;;;;;;;1.55;0.90;;;;;;;;;;4980873;28;20558;-78
2022/07/07 03:30:42;;;;;;;2.85;0.90;;;;;;;;;;4998721;28;20507;-78
2022/07/07 03:33:07;;;;;;;3.22;1.02;;;;;;;;;;4999038;28;20026;-77
2022/07/07 03:35:32;;;;;;;1.60;0.87;;;;;;;;;;4997416;28;20109;-77
2022/07/07 03:37:58;;;;;;;3.25;0.90;;;;;;;;;;4997431;28;20268;-77
2022/07/07 03:40:34;;;;;;;2.83;1.10;;;;;;;;;;4996050;28;20113;-77
2022/07/07 03:42:59;;;;;;;2.95;0.98;;;;;;;;;;4999573;28;20030;-78
2022/07/07 03:45:24;;;;;;;1.47;0.90;;;;;;;;;;4999828;28;20030;-77
2022/07/07 03:47:50;;;;;;;1.80;1.00;;;;;;;;;;4999606;28;20280;-77
2022/07/07 03:50:15;;;;;;;1.50;0.88;;;;;;;;;;5001475;28;20263;-78
2022/07/07 03:52:40;;;;;;;5.55;1.20;;;;;;;;;;5002466;28;20076;-78
2022/07/07 03:55:06;;;;;;;4.20;1.10;;;;;;;;;;5001832;28;20026;-78
2022/07/07 04:26:32;;;;;;;12.27;4.57;;;;;;;;;;4997384;28;20034;-77
2022/07/07 04:29:16;;;;;;;9.70;3.58;;;;;;;;;;4997695;28;20031;-77
2022/07/07 04:31:44;;;;;;;6.60;2.85;;;;;;;;;;4998888;28;20495;-78
2022/07/07 04:34:17;;;;;;;5.00;2.13;;;;;;;;;;4999090;28;20403;-78
2022/07/07 04:36:43;;;;;;;4.43;1.60;;;;;;;;;;4998288;28;20057;-77
2022/07/07 04:39:10;;;;;;;3.33;1.70;;;;;;;;;;4998156;28;20026;-78
2022/07/07 04:41:36;;;;;;;2.97;1.38;;;;;;;;;;4998437;28;20030;-77
2022/07/07 04:44:01;;;;;;;2.70;1.35;;;;;;;;;;4997814;28;20027;-77
2022/07/07 04:46:26;;;;;;;5.72;1.60;;;;;;;;;;4998373;28;20030;-78
2022/07/07 04:48:52;;;;;;;4.65;1.30;;;;;;;;;;4997873;28;20431;-78
2022/07/07 04:51:17;;;;;;;5.57;1.40;;;;;;;;;;4997045;28;20026;-78
2022/07/07 04:53:42;;;;;;;3.00;1.30;;;;;;;;;;4997445;28;20030;-78
2022/07/07 04:56:07;;;;;;;3.10;1.33;;;;;;;;;;4998028;28;20022;-78
2022/07/07 04:58:33;;;;;;;4.60;1.50;;;;;;;;;;4997010;28;20251;-77
2022/07/07 05:00:58;;;;;;;1.80;1.20;;;;;;;;;;4998072;28;20264;-77
2022/07/07 05:03:23;;;;;;;1.42;1.02;;;;;;;;;;4998229;28;20272;-78
2022/07/07 05:05:48;;;;;;;2.65;1.30;;;;;;;;;;4997342;28;20053;-78
2022/07/07 05:08:14;;;;;;;2.10;1.20;;;;;;;;;;4996644;28;20068;-77
2022/07/07 05:10:39;;;;;;;1.50;1.00;;;;;;;;;;4996978;28;20042;-77
2022/07/07 05:13:05;;;;;;;5.90;1.10;;;;;;;;;;4996417;28;20323;-77
2022/07/07 05:15:30;;;;;;;4.55;1.20;;;;;;;;;;4995286;28;20272;-76
2022/07/07 05:17:55;;;;;;;2.08;1.17;;;;;;;;;;4996663;28;20031;-76
2022/07/07 05:20:20;;;;;;;2.05;1.33;;;;;;;;;;4997249;28;20018;-77
2022/07/07 05:22:45;;;;;;;4.33;1.30;;;;;;;;;;4996371;28;20037;-76
2022/07/07 05:25:11;;;;;;;6.63;1.50;;;;;;;;;;4996212;28;20279;-77
2022/07/07 05:27:36;;;;;;;6.32;1.77;;;;;;;;;;4995267;28;20363;-76
2022/07/07 05:30:02;;;;;;;4.63;1.50;;;;;;;;;;4997058;28;20030;-76
2022/07/07 05:32:28;;;;;;;3.88;1.50;;;;;;;;;;4995720;28;20767;-77
2022/07/07 05:34:53;;;;;;;2.78;1.38;;;;;;;;;;4996748;28;20085;-78
2022/07/07 05:40:32;;;;;;;2.85;1.42;;;;;;;;;;4975957;28;20257;-77
2022/07/07 05:43:13;;;;;;;3.30;1.48;;;;;;;;;;5010315;28;20187;-77
2022/07/07 05:45:58;;;;;;;2.33;1.40;;;;;;;;;;5036036;28;20055;-77
2022/07/07 05:49:09;;;;;;;;;;;;;;;;;;;;;
2022/07/07 05:51:54;;;;;;;;;;;;;;;;;;;;;
2022/07/07 05:55:02;;;;;;;;;;;;;;;;;;;;;
2022/07/07 06:04:25;;;;;;;3.38;1.33;;;;;;;;;;4956076;28;20066;-78
2022/07/07 06:07:06;;;;;;;5.03;1.45;;;;;;;;;;4956065;29;20031;-79
2022/07/07 06:10:11;;;;;;;;;;;;;;;;;;;;;
2022/07/07 06:16:51;;;;;;;;;;;;;;;;;;;;;
2022/07/07 06:27:12;;;;;;;4.95;1.15;;;;;;;;;;4937069;29;20020;-78
2022/07/07 07:38:52;;;;;;;4.63;1.58;;;;;;;;;;2193274;22;20057;-78
2022/07/07 07:41:21;;;;;;;3.70;1.70;;;;;;;;;;5028951;28;20037;-78
2022/07/07 07:43:46;;;;;;;2.38;1.40;;;;;;;;;;5034265;28;20029;-77
2022/07/07 07:46:11;;;;;;;5.40;1.52;;;;;;;;;;5034855;28;20108;-78
2022/07/07 07:48:37;;;;;;;3.45;1.50;;;;;;;;;;5017868;28;20045;-79
2022/07/07 07:51:03;;;;;;;5.65;1.50;;;;;;;;;;5035890;28;20057;-78
2022/07/07 07:53:36;;;;;;;5.35;1.10;;;;;;;;;;5018422;28;20021;-79
2022/07/07 07:56:13;;;;;;;;;;;;;;;;;;5035378;28;20056;-79
2022/07/07 07:58:51;;;;;;;4.35;1.58;;;;;;;;;;5035159;28;19908;-79
2022/07/07 08:01:17;;;;;;;4.28;1.40;;;;;;;;;;5017228;28;20044;-78
2022/07/07 08:03:42;;;;;;;3.28;1.50;;;;;;;;;;5034494;28;20025;-79
2022/07/07 08:06:08;;;;;;;3.95;1.55;;;;;;;;;;5033459;28;20028;-79
2022/07/07 08:08:36;;;;;;;5.57;1.50;;;;;;;;;;5033514;28;20022;-77
2022/07/07 08:11:01;;;;;;;2.17;1.27;;;;;;;;;;5015658;28;20029;-78
2022/07/07 08:13:26;;;;;;;1.75;1.10;;;;;;;;;;5033473;28;20032;-78
2022/07/07 08:15:52;;;;;;;5.30;1.38;;;;;;;;;;5015882;28;20518;-79
2022/07/07 08:18:17;;;;;;;3.25;1.23;;;;;;;;;;5034082;28;20056;-79
2022/07/07 08:20:42;;;;;;;5.32;1.30;;;;;;;;;;5033636;28;20025;-78
2022/07/07 08:23:19;;;;;;;1.42;1.10;;;;;;;;;;5033659;28;20075;-79
2022/07/07 08:25:54;;;;;;;;;;;;;;;;;;;;;
2022/07/07 08:28:53;;;;;;;3.33;1.30;;;;;;;;;;5034243;28;20017;-78
2022/07/07 08:32:23;;;;;;;4.28;1.30;;;;;;;;;;5037123;28;20112;-78
2022/07/07 08:41:45;;;;;;;3.55;1.30;;;;;;;;;;4274782;26;20054;-78
2022/07/07 08:44:29;;;;;;;2.17;1.30;;;;;;;;;;4993839;28;20042;-79
2022/07/07 08:52:07;;;;;;;4.63;1.52;;;;;;;;;;4995063;28;20050;-77
2022/07/07 09:55:25;;;;;;;4.50;2.35;;;;;;;;;;4964464;28;20093;-78
2022/07/07 09:58:57;;;;;;;5.07;2.83;;;;;;;;;;4972773;28;20493;-77
2022/07/07 10:01:32;;;;;;;4.20;2.58;;;;;;;;;;4993772;28;20044;-77
2022/07/07 10:04:34;;;;;;;4.15;2.33;;;;;;;;;;5056679;28;20028;-78
2022/07/07 10:11:58;;;;;;;3.70;2.40;;;;;;;;;;5037414;28;20502;-78
2022/07/07 10:14:28;;;;;;;3.38;2.50;;;;;;;;;;5039114;28;20021;-78
2022/07/07 10:16:54;;;;;;;4.00;2.58;;;;;;;;;;5035418;28;20059;-78
2022/07/07 10:25:05;;;;;;;3.40;2.60;;;;;;;;;;5021241;28;20048;-78
2022/07/07 10:27:30;;;;;;;2.97;2.70;;;;;;;;;;5045327;28;20258;-78
2022/07/07 10:29:57;;;;;;;6.05;2.97;;;;;;;;;;5028716;28;20156;-80
2022/07/07 10:32:39;;;;;;;3.10;2.00;;;;;;;;;;5024462;28;20029;-78
2022/07/07 10:35:08;;;;;;;4.40;1.95;;;;;;;;;;5039806;28;20021;-78
2022/07/07 10:37:45;;;;;;;3.58;1.70;;;;;;;;;;5038009;28;20033;-77
2022/07/07 10:40:16;;;;;;;2.00;1.80;;;;;;;;;;5041091;28;20026;-78
2022/07/07 10:42:59;;;;;;;4.32;1.95;;;;;;;;;;5048310;28;20079;-79
2022/07/07 10:45:25;;;;;;;3.50;1.85;;;;;;;;;;5028447;28;20018;-79
2022/07/07 10:47:50;;;;;;;2.50;1.90;;;;;;;;;;5050103;28;20032;-78
2022/07/07 10:50:25;;;;;;;2.67;1.58;;;;;;;;;;5028613;28;20025;-78
2022/07/07 10:52:51;;;;;;;4.15;1.40;;;;;;;;;;5046207;28;20055;-76
2022/07/07 10:55:16;;;;;;;3.00;1.67;;;;;;;;;;5025330;28;20017;-77
2022/07/07 10:57:47;;;;;;;1.52;1.42;;;;;;;;;;5027203;28;20029;-78
2022/07/07 11:00:25;;;;;;;2.95;1.63;;;;;;;;;;5040700;28;20513;-76
2022/07/07 11:03:07;;;;;;;1.83;1.50;;;;;;;;;;5022052;28;20097;-78
2022/07/07 11:05:33;;;;;;;1.60;1.50;;;;;;;;;;5018967;28;20032;-78
2022/07/07 11:07:59;;;;;;;2.83;1.40;;;;;;;;;;5042983;28;20021;-78
2022/07/07 11:10:36;;;;;;;2.95;1.40;;;;;;;;;;5039222;28;20048;-77
2022/07/07 11:13:12;;;;;;;3.15;1.80;;;;;;;;;;5041083;28;20029;-78
2022/07/07 11:15:37;;;;;;;1.50;1.40;;;;;;;;;;5040216;28;20490;-78
2022/07/07 11:18:14;;;;;;;2.75;1.40;;;;;;;;;;5019730;28;20097;-78
2022/07/07 11:20:53;;;;;;;3.83;1.40;;;;;;;;;;5041050;28;20401;-76
2022/07/07 11:23:19;;;;;;;3.50;1.55;;;;;;;;;;5038090;28;20029;-78
2022/07/07 11:25:46;;;;;;;1.98;1.60;;;;;;;;;;5021808;28;20017;-78
2022/07/07 11:28:11;;;;;;;2.85;1.67;;;;;;;;;;5036774;28;20495;-76
2022/07/07 11:30:40;;;;;;;1.60;1.40;;;;;;;;;;5034103;28;20079;-77
2022/07/07 11:33:06;;;;;;;2.00;1.80;;;;;;;;;;5017071;28;20462;-77
2022/07/07 11:35:39;;;;;;;2.00;1.58;;;;;;;;;;5033942;28;20087;-78
2022/07/07 11:38:09;;;;;;;2.42;1.70;;;;;;;;;;5035674;28;20026;-77
2022/07/07 11:40:38;;;;;;;2.80;1.73;;;;;;;;;;5016340;28;20120;-77
2022/07/07 11:43:05;;;;;;;2.20;1.83;;;;;;;;;;5035619;28;20021;-76
2022/07/07 11:45:31;;;;;;;2.83;1.92;;;;;;;;;;5016448;28;20025;-77
2022/07/07 11:48:03;;;;;;;2.58;1.90;;;;;;;;;;5034091;28;20112;-77
2022/07/07 11:50:33;;;;;;;2.92;1.80;;;;;;;;;;5035210;28;20030;-77
2022/07/07 11:53:00;;;;;;;4.15;2.42;;;;;;;;;;5035474;28;20495;-77
2022/07/07 11:55:27;;;;;;;2.85;1.55;;;;;;;;;;5018330;28;20033;-77
2022/07/07 11:57:57;;;;;;;2.10;1.75;;;;;;;;;;5033932;28;20060;-76
2022/07/07 12:00:25;;;;;;;4.80;1.98;;;;;;;;;;5034323;28;20025;-77
2022/07/07 12:02:53;;;;;;;3.40;1.60;;;;;;;;;;5034101;28;20104;-78
2022/07/07 12:05:23;;;;;;;2.92;1.60;;;;;;;;;;5038054;28;20425;-77
2022/07/07 12:07:59;;;;;;;1.50;1.38;;;;;;;;;;5020450;28;20088;-77
2022/07/07 12:10:30;;;;;;;2.67;1.52;;;;;;;;;;5039457;28;20040;-77
2022/07/07 12:13:00;;;;;;;3.20;1.60;;;;;;;;;;5040067;28;20112;-78
2022/07/07 12:15:28;;;;;;;1.50;1.40;;;;;;;;;;5039963;28;20025;-78
2022/07/07 12:17:53;;;;;;;1.58;1.30;;;;;;;;;;5021769;28;20112;-79
2022/07/07 12:20:20;;;;;;;2.47;1.60;;;;;;;;;;5038842;28;20061;-77
2022/07/07 12:22:51;;;;;;;1.60;1.40;;;;;;;;;;5037100;28;20025;-79
2022/07/07 12:25:16;;;;;;;1.73;1.45;;;;;;;;;;5038154;28;20029;-77
2022/07/07 12:27:58;;;;;;;3.20;1.65;;;;;;;;;;5041215;28;20532;-78
2022/07/07 12:30:49;;;;;;;1.70;1.30;;;;;;;;;;5042763;28;20504;-78
2022/07/07 12:33:27;;;;;;;3.50;1.40;;;;;;;;;;5038537;28;20031;-77
2022/07/07 12:35:58;;;;;;;4.25;1.52;;;;;;;;;;5020273;28;20029;-78
2022/07/07 12:38:38;;;;;;;2.80;1.58;;;;;;;;;;5042095;28;20021;-79
2022/07/07 12:41:04;;;;;;;2.35;1.70;;;;;;;;;;5042321;28;20494;-78
2022/07/07 12:43:35;;;;;;;1.85;1.58;;;;;;;;;;5041749;28;20441;-78
2022/07/07 12:46:05;;;;;;;3.30;1.55;;;;;;;;;;5042814;28;20386;-78
2022/07/07 12:48:30;;;;;;;3.03;1.67;;;;;;;;;;5037053;28;20509;-77
2022/07/07 12:51:24;;;;;;;4.65;1.55;;;;;;;;;;5038948;28;20108;-78
2022/07/07 12:53:49;;;;;;;3.67;1.53;;;;;;;;;;5036491;28;20042;-78
2022/07/07 12:56:15;;;;;;;2.95;1.60;;;;;;;;;;5020223;28;20083;-77
2022/07/07 12:58:46;;;;;;;3.38;1.60;;;;;;;;;;5020399;28;20021;-77
2022/07/07 13:01:16;;;;;;;2.08;1.60;;;;;;;;;;5021797;28;20026;-78
2022/07/07 13:03:42;;;;;;;2.20;1.55;;;;;;;;;;5040623;28;20553;-77
2022/07/07 13:06:07;;;;;;;4.00;1.70;;;;;;;;;;5036587;28;20114;-77
2022/07/07 13:08:32;;;;;;;2.78;2.03;;;;;;;;;;5039857;28;20049;-77
2022/07/07 13:10:58;;;;;;;2.22;1.95;;;;;;;;;;5042572;28;20070;-78
2022/07/07 13:13:23;;;;;;;4.35;1.92;;;;;;;;;;5039906;28;20049;-78
2022/07/07 13:15:48;;;;;;;3.25;2.45;;;;;;;;;;5036937;28;20029;-79
2022/07/07 13:18:14;;;;;;;3.87;2.13;;;;;;;;;;5036571;28;20029;-79
2022/07/07 13:20:39;;;;;;;3.00;2.40;;;;;;;;;;5036845;28;20282;-77
2022/07/07 13:23:04;;;;;;;3.00;2.25;;;;;;;;;;5036960;28;20274;-78
2022/07/07 13:25:30;;;;;;;3.40;2.60;;;;;;;;;;5039257;28;20127;-77
2022/07/07 13:27:55;;;;;;;2.40;2.10;;;;;;;;;;5036252;28;20347;-77
2022/07/07 13:30:20;;;;;;;4.85;2.35;;;;;;;;;;5038299;28;20108;-78
2022/07/07 13:32:49;;;;;;;3.90;2.40;;;;;;;;;;5037787;28;20030;-77
2022/07/07 13:35:14;;;;;;;4.63;2.53;;;;;;;;;;5040415;28;20257;-78
2022/07/07 13:37:39;;;;;;;4.60;2.53;;;;;;;;;;5039038;28;20029;-77
2022/07/07 13:40:05;;;;;;;3.80;2.30;;;;;;;;;;5035581;28;20191;-78
2022/07/07 13:42:30;;;;;;;3.20;2.25;;;;;;;;;;5035687;28;20259;-77
2022/07/07 13:44:55;;;;;;;2.65;2.20;;;;;;;;;;5035598;28;20064;-77
2022/07/07 13:47:21;;;;;;;4.57;2.27;;;;;;;;;;5038888;28;20059;-77
2022/07/07 13:49:46;;;;;;;2.63;1.88;;;;;;;;;;5035988;28;20285;-77
2022/07/07 13:52:11;;;;;;;1.73;1.63;;;;;;;;;;5036624;28;20036;-77
2022/07/07 13:54:38;;;;;;;1.92;1.73;;;;;;;;;;5041166;28;20251;-79
2022/07/07 13:57:08;;;;;;;2.20;1.65;;;;;;;;;;5039290;28;20095;-78
2022/07/07 13:59:33;;;;;;;2.30;1.95;;;;;;;;;;5023341;28;20406;-79
2022/07/07 14:01:59;;;;;;;3.03;1.75;;;;;;;;;;5039757;28;20030;-78
2022/07/07 14:04:24;;;;;;;1.80;1.48;;;;;;;;;;5039888;28;20095;-78
2022/07/07 14:06:49;;;;;;;1.98;1.70;;;;;;;;;;5042332;28;20025;-78
2022/07/07 14:09:15;;;;;;;2.00;1.60;;;;;;;;;;5039528;28;20108;-78
2022/07/07 14:11:41;;;;;;;1.67;1.58;;;;;;;;;;5036516;28;20258;-77
2022/07/07 14:14:07;;;;;;;4.80;1.50;;;;;;;;;;5041498;28;20458;-78
2022/07/07 14:16:32;;;;;;;2.65;1.40;;;;;;;;;;5040903;28;20026;-78
2022/07/07 14:18:58;;;;;;;1.92;1.60;;;;;;;;;;5020533;28;20029;-78
2022/07/07 14:21:24;;;;;;;2.80;1.80;;;;;;;;;;5018160;28;20108;-77
2022/07/07 14:23:49;;;;;;;4.50;1.90;;;;;;;;;;5017625;28;20193;-77
2022/07/07 14:26:14;;;;;;;4.93;2.10;;;;;;;;;;5034268;28;20155;-77
2022/07/07 14:28:40;;;;;;;4.10;1.90;;;;;;;;;;5034522;28;20383;-78
2022/07/07 14:31:07;;;;;;;2.40;2.00;;;;;;;;;;5035289;28;20289;-77
2022/07/07 14:33:32;;;;;;;3.42;2.35;;;;;;;;;;5034502;28;20041;-77
2022/07/07 14:35:57;;;;;;;2.50;2.30;;;;;;;;;;5017381;28;20021;-77
2022/07/07 14:38:22;;;;;;;2.80;2.50;;;;;;;;;;5037941;28;20255;-78
2022/07/07 14:40:48;;;;;;;2.67;2.30;;;;;;;;;;5040603;28;20298;-78
2022/07/07 14:43:13;;;;;;;3.40;2.70;;;;;;;;;;5039718;28;20075;-78
2022/07/07 14:45:38;;;;;;;2.90;2.60;;;;;;;;;;5039592;28;20350;-77
2022/07/07 14:48:04;;;;;;;4.20;2.47;;;;;;;;;;5039500;28;20290;-77
2022/07/07 14:50:31;;;;;;;3.30;2.60;;;;;;;;;;5017890;28;20052;-77
2022/07/07 14:52:56;;;;;;;4.47;2.53;;;;;;;;;;5017715;28;20048;-75
2022/07/07 14:55:24;;;;;;;4.68;2.30;;;;;;;;;;5020703;28;20443;-77
2022/07/07 14:57:49;;;;;;;3.60;2.60;;;;;;;;;;5021571;28;20386;-78
2022/07/07 15:00:14;;;;;;;3.35;2.30;;;;;;;;;;5022673;28;20071;-78
2022/07/07 15:02:40;;;;;;;2.95;2.50;;;;;;;;;;5039847;28;20455;-77
2022/07/07 15:05:05;;;;;;;3.20;2.60;;;;;;;;;;5039268;28;20461;-77
2022/07/07 15:07:30;;;;;;;4.00;2.65;;;;;;;;;;5034913;28;20779;-77
2022/07/07 15:09:55;;;;;;;2.70;2.42;;;;;;;;;;5035423;28;20048;-77
2022/07/07 15:12:21;;;;;;;3.00;2.60;;;;;;;;;;5036775;28;20047;-77
2022/07/07 15:14:46;;;;;;;4.07;2.70;;;;;;;;;;5039663;28;20271;-78
2022/07/07 15:17:11;;;;;;;2.58;2.38;;;;;;;;;;5041238;28;20270;-78
2022/07/07 15:19:36;;;;;;;3.72;3.03;;;;;;;;;;5037979;28;20053;-77
2022/07/07 15:22:02;;;;;;;3.10;2.77;;;;;;;;;;5041225;28;20040;-78
2022/07/07 15:24:27;;;;;;;3.58;2.78;;;;;;;;;;5033735;28;20259;-77
2022/07/07 15:26:53;;;;;;;3.17;2.72;;;;;;;;;;5036528;28;20132;-79
2022/07/07 15:29:18;;;;;;;3.90;2.88;;;;;;;;;;5024286;28;20075;-78
2022/07/07 15:31:44;;;;;;;2.70;2.50;;;;;;;;;;5034045;28;20029;-78
2022/07/07 15:34:10;;;;;;;3.92;2.50;;;;;;;;;;5037725;28;20258;-78
2022/07/07 15:36:35;;;;;;;2.95;2.45;;;;;;;;;;5033593;28;20026;-77
2022/07/07 15:39:00;;;;;;;3.53;2.42;;;;;;;;;;5041695;28;20022;-77
2022/07/07 15:41:26;;;;;;;2.95;2.40;;;;;;;;;;5037838;28;20025;-78
2022/07/07 15:43:51;;;;;;;2.80;2.40;;;;;;;;;;5037709;28;20029;-76
2022/07/07 15:46:17;;;;;;;4.80;2.50;;;;;;;;;;5040814;28;20467;-76
2022/07/07 15:48:44;;;;;;;4.13;2.63;;;;;;;;;;5045163;28;20028;-78
2022/07/07 15:51:12;;;;;;;3.15;2.58;;;;;;;;;;5024444;28;20547;-77
2022/07/07 15:53:38;;;;;;;3.38;2.65;;;;;;;;;;5040570;28;20352;-77
2022/07/07 15:56:04;;;;;;;2.65;2.42;;;;;;;;;;5040813;28;20063;-77
2022/07/07 15:58:29;;;;;;;2.60;2.40;;;;;;;;;;5041086;28;20025;-77
2022/07/07 16:00:55;;;;;;;4.97;2.58;;;;;;;;;;5039608;28;20025;-78
2022/07/07 16:03:20;;;;;;;2.70;2.40;;;;;;;;;;5044792;28;20067;-79
2022/07/07 16:05:45;;;;;;;2.60;2.40;;;;;;;;;;5040843;28;20104;-78
2022/07/07 16:08:10;;;;;;;2.92;2.58;;;;;;;;;;5037782;28;20293;-78
2022/07/07 16:10:36;;;;;;;4.73;2.43;;;;;;;;;;5039611;28;20044;-78
2022/07/07 16:13:01;;;;;;;3.53;2.40;;;;;;;;;;5045240;28;20258;-78
2022/07/07 16:15:27;;;;;;;2.83;2.40;;;;;;;;;;5044831;28;20079;-78
2022/07/07 16:17:52;;;;;;;2.38;2.17;;;;;;;;;;5038806;28;20033;-79
2022/07/07 16:20:21;;;;;;;2.33;2.10;;;;;;;;;;5040094;28;20038;-78
2022/07/07 16:22:49;;;;;;;3.65;2.10;;;;;;;;;;5026558;28;20025;-78
2022/07/07 16:25:14;;;;;;;2.13;1.88;;;;;;;;;;5044942;28;20021;-77
2022/07/07 16:27:40;;;;;;;3.58;1.90;;;;;;;;;;5041805;28;20476;-78
2022/07/07 16:30:06;;;;;;;5.40;2.20;;;;;;;;;;5037143;28;20032;-77
2022/07/07 16:32:33;;;;;;;2.45;1.60;;;;;;;;;;5019647;28;20026;-79
2022/07/07 16:34:59;;;;;;;1.77;1.67;;;;;;;;;;5043761;28;20033;-77
2022/07/07 16:37:24;;;;;;;4.35;1.70;;;;;;;;;;5038527;28;20076;-77
2022/07/07 16:39:50;;;;;;;2.78;1.50;;;;;;;;;;5024374;28;20025;-79
2022/07/07 16:42:15;;;;;;;3.58;1.70;;;;;;;;;;5040100;28;20021;-78
2022/07/07 16:44:40;;;;;;;1.95;1.50;;;;;;;;;;5041270;28;20021;-78
2022/07/07 16:47:06;;;;;;;3.75;1.70;;;;;;;;;;5038352;28;20052;-79
2022/07/07 16:49:31;;;;;;;8.10;1.58;;;;;;;;;;5022395;28;20034;-77
2022/07/07 16:51:56;;;;;;;2.13;1.60;;;;;;;;;;5037586;28;20029;-77
2022/07/07 16:54:22;;;;;;;2.25;1.73;;;;;;;;;;5038682;28;20029;-78
2022/07/07 16:56:47;;;;;;;4.28;1.70;;;;;;;;;;5043879;28;20116;-78
2022/07/07 16:59:12;;;;;;;2.97;1.63;;;;;;;;;;5040829;28;20028;-78
2022/07/07 17:01:37;;;;;;;3.40;1.60;;;;;;;;;;5039233;28;20261;-77
2022/07/07 17:04:03;;;;;;;2.22;1.73;;;;;;;;;;5039551;28;20324;-78
2022/07/07 17:06:28;;;;;;;2.10;1.70;;;;;;;;;;5041121;28;20075;-77
2022/07/07 17:08:54;;;;;;;2.75;1.80;;;;;;;;;;5037985;28;20064;-77
2022/07/07 17:11:19;;;;;;;2.33;1.80;;;;;;;;;;5019077;28;20387;-77
2022/07/07 17:13:46;;;;;;;2.55;1.55;;;;;;;;;;5039222;28;20524;-79
2022/07/07 17:16:11;;;;;;;1.80;1.42;;;;;;;;;;5040658;28;20025;-76
2022/07/07 17:18:37;;;;;;;1.40;1.20;;;;;;;;;;5039971;28;20024;-78
2022/07/07 17:21:02;;;;;;;1.30;1.20;;;;;;;;;;5040906;28;20116;-78
2022/07/07 17:23:28;;;;;;;3.30;1.10;;;;;;;;;;5041082;28;20021;-78
2022/07/07 17:25:53;;;;;;;1.33;1.23;;;;;;;;;;5039243;28;20501;-78
2022/07/07 17:28:18;;;;;;;1.30;1.20;;;;;;;;;;5044304;28;20293;-78
2022/07/07 17:30:44;;;;;;;1.30;1.20;;;;;;;;;;5047404;28;20072;-76
2022/07/07 17:33:09;;;;;;;1.95;1.27;;;;;;;;;;5049187;28;20254;-77
2022/07/07 17:35:34;;;;;;;3.10;1.20;;;;;;;;;;5030863;28;20026;-77
2022/07/07 17:38:00;;;;;;;2.42;1.88;;;;;;;;;;5047871;28;20081;-77
2022/07/07 17:40:27;;;;;;;2.05;1.40;;;;;;;;;;5048953;28;20032;-77
2022/07/07 17:42:54;;;;;;;4.75;1.80;;;;;;;;;;5050180;28;20080;-77
2022/07/07 17:45:21;;;;;;;2.63;1.45;;;;;;;;;;5048829;28;20036;-77
2022/07/07 17:47:46;;;;;;;2.80;1.60;;;;;;;;;;5050760;28;20089;-77
2022/07/07 17:50:12;;;;;;;2.45;1.25;;;;;;;;;;5050496;28;20033;-78
2022/07/07 17:52:37;;;;;;;2.95;1.38;;;;;;;;;;5048044;28;20060;-77
2022/07/07 17:55:04;;;;;;;6.13;3.37;;;;;;;;;;5043835;28;20128;-77
2022/07/07 17:57:29;;;;;;;3.83;2.33;;;;;;;;;;5044156;28;20246;-77
2022/07/07 17:59:55;;;;;;;3.92;1.50;;;;;;;;;;5044758;28;20022;-77
2022/07/07 18:02:20;;;;;;;2.40;1.30;;;;;;;;;;5046548;28;20032;-78
2022/07/07 18:04:45;;;;;;;3.73;1.27;;;;;;;;;;5047119;28;20281;-77
2022/07/07 18:07:10;;;;;;;1.88;1.27;;;;;;;;;;5044780;28;20744;-77
2022/07/07 18:09:36;;;;;;;1.75;1.20;;;;;;;;;;5040050;28;20030;-78
2022/07/07 18:12:01;;;;;;;2.45;1.50;;;;;;;;;;5021472;28;20108;-79
2022/07/07 18:14:27;;;;;;;1.27;1.17;;;;;;;;;;5040504;28;20533;-77
2022/07/07 18:16:52;;;;;;;2.00;1.20;;;;;;;;;;5040511;28;20024;-79
2022/07/07 18:19:18;;;;;;;2.27;1.30;;;;;;;;;;5039927;28;20083;-77